Time;durP1;ratioP1;P1;durP2;ratioP2;P2;SDS_P1;SDS_P2;PMS_P1;PMS_P2;Temp;Humidity;BMP_temperature;BMP_pressure;BME280_temperature;BME280_humidity;BME280_pressure;Samples;Min_cycle;Max_cycle;Signal;HPM_P1;HPM_P2
2023/09/01 04:06:16;;;;;;;1.03;1.00;;;17.40;99.90;;;;;;5325962;22;20479;-60
2023/09/01 04:08:42;;;;;;;0.93;0.93;;;17.50;99.90;;;;;;5033327;28;20398;-60
2023/09/01 04:11:08;;;;;;;0.87;0.87;;;17.50;99.90;;;;;;5033249;28;20174;-61
2023/09/01 04:13:34;;;;;;;1.30;1.20;;;17.50;99.90;;;;;;5033501;28;20419;-61
2023/09/01 04:16:01;;;;;;;1.47;1.37;;;17.50;99.90;;;;;;5033318;28;20283;-61
2023/09/01 04:18:26;;;;;;;0.80;0.80;;;17.50;99.90;;;;;;5033536;28;20893;-60
2023/09/01 04:20:54;;;;;;;1.00;1.00;;;17.50;99.90;;;;;;5033207;28;20942;-60
2023/09/01 04:23:20;;;;;;;1.03;0.93;;;17.50;99.90;;;;;;5033362;28;20218;-61
2023/09/01 04:25:49;;;;;;;1.20;1.20;;;17.50;99.90;;;;;;5033009;28;20441;-60
2023/09/01 04:28:16;;;;;;;1.37;1.30;;;17.50;99.90;;;;;;5033383;28;20742;-60
2023/09/01 04:30:45;;;;;;;1.27;1.17;;;17.40;99.90;;;;;;5033147;28;20450;-60
2023/09/01 04:33:10;;;;;;;0.87;0.87;;;17.40;99.90;;;;;;5033101;28;20458;-60
2023/09/01 04:35:36;;;;;;;0.80;0.80;;;17.40;99.90;;;;;;5014177;28;20454;-61
2023/09/01 04:38:02;;;;;;;1.07;1.07;;;17.40;99.90;;;;;;5033230;28;20726;-61
2023/09/01 04:40:28;;;;;;;2.00;1.43;;;17.30;99.90;;;;;;5032952;28;20178;-60
2023/09/01 04:42:54;;;;;;;1.13;0.80;;;17.30;99.90;;;;;;5032920;28;20444;-61
2023/09/01 04:45:20;;;;;;;0.80;0.80;;;17.40;99.90;;;;;;5032824;28;20441;-60
2023/09/01 04:47:46;;;;;;;0.83;0.83;;;17.30;99.90;;;;;;5036900;28;20513;-61
2023/09/01 04:50:11;;;;;;;0.80;0.80;;;17.30;99.90;;;;;;5036985;28;20207;-60
2023/09/01 04:52:37;;;;;;;1.53;1.00;;;17.30;99.90;;;;;;5036928;28;20179;-60
2023/09/01 04:55:08;;;;;;;1.10;1.00;;;17.30;99.90;;;;;;5036577;28;20671;-60
2023/09/01 04:57:34;;;;;;;1.00;1.00;;;17.30;99.90;;;;;;5037226;28;20191;-60
2023/09/01 04:59:59;;;;;;;1.00;1.00;;;17.30;99.90;;;;;;5036566;28;20395;-60
2023/09/01 05:02:25;;;;;;;1.17;0.90;;;17.40;99.90;;;;;;5036707;28;20434;-60
2023/09/01 05:04:51;;;;;;;1.23;0.90;;;17.40;99.90;;;;;;5036293;28;20218;-60
2023/09/01 05:07:17;;;;;;;1.00;1.00;;;17.40;99.90;;;;;;5036431;28;20192;-60
2023/09/01 05:09:42;;;;;;;3.37;1.80;;;17.50;99.90;;;;;;5036479;28;20408;-60
2023/09/01 05:12:08;;;;;;;1.57;1.37;;;17.50;99.90;;;;;;5036308;28;20260;-60
2023/09/01 05:14:34;;;;;;;0.63;0.63;;;17.60;99.90;;;;;;5036047;28;20206;-60
2023/09/01 05:17:00;;;;;;;0.80;0.80;;;17.60;99.90;;;;;;5036468;28;20399;-60
2023/09/01 05:19:25;;;;;;;8.87;2.10;;;17.70;99.90;;;;;;5035659;28;20189;-60
2023/09/01 05:21:51;;;;;;;1.10;0.90;;;17.70;99.90;;;;;;5035941;28;20487;-60
2023/09/01 05:24:17;;;;;;;0.73;0.63;;;17.80;99.90;;;;;;5035818;28;20185;-60
2023/09/01 05:26:42;;;;;;;0.50;0.50;;;17.80;99.90;;;;;;5036105;28;20209;-59
2023/09/01 05:29:08;;;;;;;1.13;1.10;;;17.90;99.90;;;;;;5035536;28;20547;-60
2023/09/01 05:31:33;;;;;;;1.13;0.80;;;17.90;99.90;;;;;;5034974;28;20702;-59
2023/09/01 05:33:59;;;;;;;2.73;2.53;;;17.90;99.90;;;;;;5035645;28;20193;-57
2023/09/01 05:36:26;;;;;;;0.70;0.70;;;17.80;99.90;;;;;;5035965;28;20201;-60
2023/09/01 05:38:51;;;;;;;1.63;1.23;;;17.80;99.90;;;;;;5035912;28;20559;-60
2023/09/01 05:41:17;;;;;;;1.13;1.03;;;17.80;99.90;;;;;;5035452;28;20458;-61
2023/09/01 05:43:42;;;;;;;1.23;1.17;;;17.70;99.90;;;;;;5035379;28;20177;-59
2023/09/01 05:46:08;;;;;;;1.23;1.17;;;17.60;99.90;;;;;;5035572;28;20255;-59
2023/09/01 05:48:36;;;;;;;1.17;1.07;;;17.60;99.90;;;;;;5035602;28;20184;-59
2023/09/01 05:51:01;;;;;;;0.70;0.70;;;17.60;99.90;;;;;;5035625;28;20546;-59
2023/09/01 05:53:27;;;;;;;1.00;1.00;;;17.60;99.90;;;;;;5035495;28;20381;-59
2023/09/01 05:55:53;;;;;;;1.10;1.00;;;17.50;99.90;;;;;;5035202;28;20186;-59
2023/09/01 05:58:19;;;;;;;1.33;1.23;;;17.50;99.90;;;;;;5035154;28;20392;-59
2023/09/01 06:00:44;;;;;;;1.00;0.90;;;17.40;99.90;;;;;;5035476;28;20259;-59
2023/09/01 06:03:10;;;;;;;0.83;0.83;;;17.40;99.90;;;;;;5035315;28;20209;-59
2023/09/01 06:05:36;;;;;;;1.10;1.00;;;17.30;99.90;;;;;;5034618;28;21166;-60
2023/09/01 06:08:02;;;;;;;1.40;1.00;;;17.20;99.90;;;;;;5035160;28;20233;-59
2023/09/01 06:10:28;;;;;;;0.80;0.80;;;17.00;99.90;;;;;;5035270;28;20519;-59
2023/09/01 06:12:54;;;;;;;1.00;0.90;;;17.00;99.90;;;;;;5035202;28;20421;-59
2023/09/01 06:15:19;;;;;;;0.90;0.90;;;17.00;99.90;;;;;;5034737;28;20194;-59
2023/09/01 06:17:45;;;;;;;2.60;1.93;;;16.90;99.90;;;;;;5035156;28;20311;-60
2023/09/01 06:20:11;;;;;;;2.27;1.30;;;16.90;99.90;;;;;;5034952;28;20191;-59
2023/09/01 06:22:37;;;;;;;1.03;0.87;;;16.90;99.90;;;;;;5035162;28;20209;-59
2023/09/01 06:25:03;;;;;;;1.03;1.03;;;17.00;99.90;;;;;;5034783;28;20469;-59
2023/09/01 06:27:29;;;;;;;1.27;1.00;;;17.00;99.90;;;;;;5035128;28;20181;-60
2023/09/01 06:29:56;;;;;;;1.50;1.40;;;16.90;99.90;;;;;;5035124;28;20770;-59
2023/09/01 06:32:23;;;;;;;1.43;1.13;;;16.90;99.90;;;;;;5035187;28;20279;-60
2023/09/01 06:34:49;;;;;;;2.93;1.30;;;16.90;99.90;;;;;;5034445;28;20462;-59
2023/09/01 06:37:14;;;;;;;1.20;0.83;;;16.90;99.90;;;;;;5034477;28;20500;-59
2023/09/01 06:39:40;;;;;;;1.47;1.10;;;16.80;99.90;;;;;;5032737;28;20179;-59
2023/09/01 06:42:07;;;;;;;2.47;2.10;;;16.80;99.90;;;;;;5032162;28;20214;-59
2023/09/01 06:44:32;;;;;;;1.73;1.33;;;16.80;99.90;;;;;;5032164;28;20234;-59
2023/09/01 06:46:58;;;;;;;1.30;1.20;;;16.70;99.90;;;;;;5033395;28;20402;-59
2023/09/01 06:49:23;;;;;;;0.70;0.70;;;16.80;99.90;;;;;;5033638;28;20179;-60
2023/09/01 06:51:49;;;;;;;1.00;1.00;;;16.80;99.90;;;;;;5034126;28;20224;-59
2023/09/01 06:54:15;;;;;;;0.93;0.87;;;16.80;99.90;;;;;;5016207;28;20294;-60
2023/09/01 06:56:40;;;;;;;1.47;0.90;;;16.80;99.90;;;;;;5034584;28;20525;-59
2023/09/01 06:59:06;;;;;;;1.10;1.00;;;16.80;99.90;;;;;;5034587;28;20178;-59
2023/09/01 07:01:31;;;;;;;1.10;1.00;;;16.80;99.90;;;;;;5034401;28;20233;-59
2023/09/01 07:03:57;;;;;;;0.97;0.93;;;16.80;99.90;;;;;;5033821;28;20635;-60
2023/09/01 07:06:24;;;;;;;2.30;1.60;;;16.90;99.90;;;;;;5034138;28;20319;-59
2023/09/01 07:08:49;;;;;;;1.13;1.03;;;16.90;99.90;;;;;;5033267;28;20491;-61
2023/09/01 07:11:19;;;;;;;1.23;1.13;;;16.90;99.90;;;;;;5034219;28;20233;-58
2023/09/01 07:13:46;;;;;;;1.00;1.00;;;17.00;99.90;;;;;;5033856;28;20175;-58
2023/09/01 07:16:12;;;;;;;0.60;0.60;;;17.00;99.90;;;;;;5033817;28;20908;-59
2023/09/01 07:18:38;;;;;;;1.60;1.10;;;17.10;99.90;;;;;;5033882;28;20458;-59
2023/09/01 07:21:04;;;;;;;0.70;0.70;;;17.10;99.90;;;;;;5033856;28;20426;-59
2023/09/01 07:23:29;;;;;;;1.03;0.93;;;17.20;99.90;;;;;;5034198;28;20188;-59
2023/09/01 07:25:55;;;;;;;0.87;0.80;;;17.20;99.90;;;;;;5033810;28;20779;-61
2023/09/01 07:28:21;;;;;;;0.90;0.80;;;17.30;99.90;;;;;;5033688;28;20188;-60
2023/09/01 07:30:48;;;;;;;1.00;1.00;;;17.30;99.90;;;;;;5034113;28;20766;-61
2023/09/01 07:33:14;;;;;;;0.87;0.60;;;17.40;99.90;;;;;;5033807;28;20411;-60
2023/09/01 07:35:53;;;;;;;0.87;0.87;;;17.40;99.90;;;;;;5033581;28;20446;-59
2023/09/01 07:38:19;;;;;;;0.67;0.67;;;17.40;99.90;;;;;;5033983;28;20385;-59
2023/09/01 07:40:45;;;;;;;1.23;0.80;;;17.30;99.90;;;;;;5033650;28;20425;-61
2023/09/01 07:43:11;;;;;;;0.80;0.73;;;17.20;99.90;;;;;;5033512;28;20214;-59
2023/09/01 07:45:37;;;;;;;0.83;0.53;;;17.20;99.90;;;;;;5033084;28;20423;-60
2023/09/01 07:48:03;;;;;;;1.43;0.63;;;17.20;99.90;;;;;;5033557;28;20980;-60
2023/09/01 07:50:30;;;;;;;0.93;0.93;;;17.30;99.90;;;;;;5033106;28;20173;-59
2023/09/01 07:52:59;;;;;;;0.77;0.77;;;17.40;99.90;;;;;;5033002;28;20504;-59
2023/09/01 07:55:26;;;;;;;0.53;0.53;;;17.50;99.90;;;;;;5029865;28;20436;-59
2023/09/01 07:57:52;;;;;;;1.07;0.90;;;17.60;99.90;;;;;;5033055;28;20901;-63
2023/09/01 08:00:17;;;;;;;0.53;0.53;;;17.60;99.90;;;;;;5033362;28;20428;-65
2023/09/01 08:02:43;;;;;;;1.13;1.10;;;17.80;99.90;;;;;;5033456;28;20213;-65
2023/09/01 08:05:09;;;;;;;1.23;1.00;;;17.90;99.90;;;;;;5032902;28;20221;-64
2023/09/01 08:07:36;;;;;;;0.80;0.80;;;18.20;99.90;;;;;;5033217;28;20205;-60
2023/09/01 08:10:02;;;;;;;0.83;0.83;;;18.50;99.90;;;;;;5033423;28;20379;-59
2023/09/01 08:12:29;;;;;;;0.90;0.90;;;19.00;99.90;;;;;;5033423;28;20427;-60
2023/09/01 08:14:54;;;;;;;0.63;0.63;;;19.50;99.90;;;;;;5033112;28;20440;-60
2023/09/01 08:17:20;;;;;;;1.07;0.97;;;19.80;99.90;;;;;;5033452;28;20763;-61
2023/09/01 08:19:49;;;;;;;0.57;0.57;;;19.90;99.90;;;;;;5034025;28;20878;-60
2023/09/01 08:22:16;;;;;;;0.60;0.60;;;20.00;99.90;;;;;;5037413;28;20548;-61
2023/09/01 08:24:43;;;;;;;0.73;0.73;;;20.10;99.90;;;;;;5019053;28;20419;-59
2023/09/01 08:27:09;;;;;;;0.43;0.43;;;20.10;99.90;;;;;;5037341;28;20514;-59
2023/09/01 08:29:34;;;;;;;0.50;0.50;;;20.20;99.90;;;;;;5037399;28;20867;-59
2023/09/01 08:32:00;;;;;;;0.43;0.43;;;20.10;99.90;;;;;;5037211;28;20216;-59
2023/09/01 08:34:29;;;;;;;0.60;0.60;;;20.10;99.90;;;;;;5036799;28;20239;-60
2023/09/01 08:36:54;;;;;;;0.70;0.70;;;20.00;99.90;;;;;;5037065;28;20470;-59
2023/09/01 08:39:20;;;;;;;0.70;0.70;;;19.90;99.90;;;;;;5037262;28;20427;-59
2023/09/01 08:41:48;;;;;;;0.50;0.50;;;19.90;99.90;;;;;;5037016;28;20259;-61
2023/09/01 08:44:14;;;;;;;0.60;0.60;;;20.00;99.90;;;;;;5036512;28;20175;-60
2023/09/01 08:46:40;;;;;;;0.60;0.60;;;20.30;99.90;;;;;;5036541;28;20392;-60
2023/09/01 08:49:08;;;;;;;0.90;0.70;;;20.80;99.90;;;;;;5018802;28;20460;-60
2023/09/01 08:51:39;;;;;;;0.83;0.80;;;21.20;99.90;;;;;;5035277;28;20437;-60
2023/09/01 08:54:06;;;;;;;2.30;0.70;;;21.60;99.90;;;;;;5036069;28;20412;-59
2023/09/01 08:56:33;;;;;;;0.73;0.73;;;22.10;99.90;;;;;;5017667;28;20441;-60
2023/09/01 08:58:59;;;;;;;0.60;0.60;;;22.40;99.90;;;;;;5035814;28;20816;-58
2023/09/01 09:01:24;;;;;;;0.50;0.50;;;22.60;99.90;;;;;;5036769;28;20458;-59
2023/09/01 09:03:50;;;;;;;0.60;0.60;;;22.80;99.90;;;;;;5034841;28;20170;-60
2023/09/01 09:06:16;;;;;;;0.70;0.70;;;23.00;99.90;;;;;;5034352;28;20296;-60
2023/09/01 09:08:42;;;;;;;1.23;1.13;;;23.10;99.90;;;;;;5034460;28;20560;-59
2023/09/01 09:11:14;;;;;;;0.77;0.77;;;23.10;99.90;;;;;;5034384;28;20471;-59
2023/09/01 09:13:40;;;;;;;0.90;0.80;;;23.00;99.90;;;;;;5034279;28;20201;-59
2023/09/01 09:16:06;;;;;;;0.90;0.90;;;22.80;99.90;;;;;;5016462;28;20443;-59
2023/09/01 09:18:32;;;;;;;0.80;0.80;;;22.70;99.90;;;;;;5035150;28;20383;-59
2023/09/01 09:20:58;;;;;;;0.73;0.73;;;22.80;99.90;;;;;;5036338;28;20388;-59
2023/09/01 09:23:59;;;;;;;0.70;0.70;;;23.00;99.90;;;;;;5036291;28;20517;-59
2023/09/01 09:26:29;;;;;;;0.80;0.77;;;23.60;99.90;;;;;;5014550;28;20234;-60
2023/09/01 09:29:01;;;;;;;1.33;1.23;;;24.20;99.90;;;;;;5035988;28;20894;-60
2023/09/01 09:31:35;;;;;;;1.00;0.70;;;24.90;99.90;;;;;;5035335;28;20384;-61
2023/09/01 09:34:12;;;;;;;0.67;0.67;;;25.80;99.90;;;;;;5036162;28;20762;-61
2023/09/01 09:36:38;;;;;;;0.80;0.80;;;26.40;99.90;;;;;;5035922;28;20415;-60
2023/09/01 09:39:06;;;;;;;0.70;0.70;;;27.00;99.90;;;;;;5036087;28;20417;-60
2023/09/01 09:41:48;;;;;;;1.17;0.80;;;27.50;99.90;;;;;;5036070;28;20464;-60
2023/09/01 09:44:33;;;;;;;0.80;0.80;;;27.90;99.90;;;;;;5035622;28;20409;-59
2023/09/01 09:47:00;;;;;;;0.67;0.60;;;28.10;99.90;;;;;;5018046;28;20445;-59
2023/09/01 09:49:30;;;;;;;1.70;0.70;;;27.90;99.90;;;;;;5036151;28;20451;-59
2023/09/01 09:51:59;;;;;;;0.83;0.83;;;27.30;99.90;;;;;;5035847;28;20380;-59
2023/09/01 09:54:29;;;;;;;0.77;0.77;;;26.80;99.90;;;;;;5017506;28;20388;-59
2023/09/01 09:56:57;;;;;;;0.80;0.80;;;26.50;99.90;;;;;;5035451;28;20749;-59
2023/09/01 09:59:43;;;;;;;0.90;0.90;;;26.20;99.90;;;;;;5035959;28;20388;-61
2023/09/01 10:02:37;;;;;;;0.60;0.60;;;25.90;99.90;;;;;;5035818;28;20460;-60
2023/09/01 10:05:04;;;;;;;0.73;0.67;;;25.60;99.90;;;;;;5030735;28;20490;-60
2023/09/01 10:07:32;;;;;;;0.80;0.80;;;25.30;99.90;;;;;;5035234;28;20415;-60
2023/09/01 10:09:59;;;;;;;0.73;0.73;;;24.90;99.90;;;;;;5035358;28;20381;-60
2023/09/01 10:12:26;;;;;;;0.70;0.70;;;24.60;99.90;;;;;;5034687;28;20434;-59
2023/09/01 10:14:54;;;;;;;0.90;0.70;;;24.20;99.90;;;;;;5034417;28;20423;-59
2023/09/01 10:17:21;;;;;;;1.20;0.90;;;24.00;99.90;;;;;;5035342;28;20399;-61
2023/09/01 10:19:47;;;;;;;0.67;0.67;;;23.70;99.90;;;;;;5035563;28;20456;-59
2023/09/01 10:22:16;;;;;;;0.53;0.53;;;23.50;99.90;;;;;;5034118;28;20492;-60
2023/09/01 10:25:11;;;;;;;1.10;0.80;;;23.40;99.90;;;;;;5034464;28;21002;-60
2023/09/01 10:27:37;;;;;;;0.83;0.80;;;23.20;99.90;;;;;;5032892;28;20399;-58
2023/09/01 10:30:24;;;;;;;0.63;0.63;;;23.10;99.90;;;;;;5035143;28;20744;-59
2023/09/01 10:32:50;;;;;;;0.80;0.67;;;23.00;99.90;;;;;;5034882;28;20405;-59
2023/09/01 10:35:38;;;;;;;1.07;0.60;;;22.90;99.90;;;;;;5034550;28;20881;-60
2023/09/01 10:38:18;;;;;;;0.73;0.73;;;22.70;99.90;;;;;;5035074;28;20499;-58
2023/09/01 10:40:54;;;;;;;1.10;0.80;;;22.60;99.90;;;;;;5034887;28;20390;-58
2023/09/01 10:43:35;;;;;;;1.90;0.80;;;22.60;99.90;;;;;;5016937;28;20529;-58
2023/09/01 10:46:16;;;;;;;0.57;0.57;;;22.50;99.90;;;;;;5034670;28;20475;-61
2023/09/01 10:48:53;;;;;;;0.53;0.53;;;22.60;99.90;;;;;;5034657;28;20402;-60
2023/09/01 10:51:33;;;;;;;0.90;0.57;;;22.60;99.90;;;;;;5034499;28;20442;-60
2023/09/01 10:54:00;;;;;;;1.20;1.20;;;22.70;99.90;;;;;;5034090;28;20393;-61
2023/09/01 10:56:27;;;;;;;0.87;0.50;;;22.80;99.90;;;;;;5034145;28;20475;-60
2023/09/01 10:58:54;;;;;;;1.10;0.53;;;22.80;99.90;;;;;;5034450;28;20480;-59
2023/09/01 11:01:35;;;;;;;1.10;0.80;;;22.80;99.90;;;;;;5034281;28;20380;-59
2023/09/01 11:04:16;;;;;;;1.07;0.97;;;23.00;99.90;;;;;;5033962;28;20822;-59
2023/09/01 11:06:57;;;;;;;0.53;0.53;;;23.20;99.90;;;;;;5034046;28;20429;-59
2023/09/01 11:09:42;;;;;;;0.50;0.50;;;23.50;99.90;;;;;;5034188;28;20442;-62
2023/09/01 11:12:10;;;;;;;1.30;1.20;;;23.80;99.90;;;;;;5014570;28;20421;-60
2023/09/01 11:14:37;;;;;;;0.90;0.90;;;24.00;99.90;;;;;;5013956;28;20997;-57
2023/09/01 11:17:03;;;;;;;0.80;0.80;;;24.00;99.90;;;;;;5014238;28;20414;-61
2023/09/01 11:19:47;;;;;;;0.67;0.67;;;24.10;99.90;;;;;;5014288;28;20405;-59
2023/09/01 11:22:13;;;;;;;0.70;0.70;;;24.20;99.90;;;;;;5014051;28;20482;-59
2023/09/01 11:24:39;;;;;;;0.67;0.67;;;24.30;99.90;;;;;;5015539;28;20403;-60
2023/09/01 11:27:06;;;;;;;2.00;0.87;;;24.40;99.90;;;;;;5033673;28;20944;-59
2023/09/01 11:29:31;;;;;;;1.27;0.63;;;24.60;99.90;;;;;;5033816;28;20432;-59
2023/09/01 11:31:57;;;;;;;0.90;0.90;;;24.60;99.90;;;;;;5033853;28;20415;-59
2023/09/01 11:34:22;;;;;;;1.07;0.97;;;24.70;99.90;;;;;;5033409;28;20167;-59
2023/09/01 11:36:52;;;;;;;4.03;1.07;;;24.80;99.90;;;;;;5033900;28;20176;-59
2023/09/01 11:39:18;;;;;;;1.07;0.97;;;25.10;99.90;;;;;;5033629;28;20238;-64
2023/09/01 11:41:45;;;;;;;1.40;1.30;;;25.20;99.90;;;;;;5033696;28;20478;-64
2023/09/01 11:44:11;;;;;;;0.90;0.90;;;25.20;99.90;;;;;;5033462;28;20400;-66
2023/09/01 11:46:37;;;;;;;0.70;0.70;;;25.10;99.90;;;;;;5033426;28;20431;-60
2023/09/01 11:49:05;;;;;;;0.93;0.93;;;25.00;99.90;;;;;;5033736;28;20386;-65
2023/09/01 11:51:36;;;;;;;1.13;0.60;;;24.80;99.90;;;;;;5033431;28;20911;-63
2023/09/01 11:54:02;;;;;;;1.17;1.03;;;24.60;99.90;;;;;;5032882;28;20426;-62
2023/09/01 11:56:28;;;;;;;0.70;0.67;;;24.40;99.90;;;;;;5032967;28;20526;-61
2023/09/01 11:58:56;;;;;;;1.57;1.47;;;24.20;99.90;;;;;;5033632;28;20421;-61
2023/09/01 12:01:23;;;;;;;0.80;0.80;;;24.10;99.90;;;;;;5033603;28;20174;-62
2023/09/01 12:03:51;;;;;;;1.30;1.30;;;24.10;99.90;;;;;;5033095;28;20566;-62
2023/09/01 12:06:19;;;;;;;0.73;0.73;;;24.20;99.90;;;;;;5033146;28;20440;-61
2023/09/01 12:09:09;;;;;;;0.70;0.70;;;24.20;99.90;;;;;;5033011;28;20490;-61
2023/09/01 12:11:35;;;;;;;0.90;0.90;;;24.20;99.90;;;;;;5006090;28;20441;-61
2023/09/01 12:14:20;;;;;;;2.60;0.77;;;24.20;99.90;;;;;;5032886;28;20384;-64
2023/09/01 12:16:52;;;;;;;0.73;0.60;;;24.20;99.90;;;;;;5015560;28;20269;-61
2023/09/01 12:19:18;;;;;;;1.03;1.03;;;24.10;99.90;;;;;;5033355;28;20413;-61
2023/09/01 12:21:43;;;;;;;0.90;0.70;;;24.10;99.90;;;;;;5033043;28;20430;-63
2023/09/01 12:24:09;;;;;;;0.70;0.70;;;24.10;99.90;;;;;;5032574;28;20513;-61
2023/09/01 12:26:35;;;;;;;1.60;0.63;;;24.10;99.90;;;;;;5033236;28;20532;-61
2023/09/01 12:29:00;;;;;;;0.60;0.60;;;24.10;99.90;;;;;;5032979;28;20380;-61
2023/09/01 12:31:26;;;;;;;0.80;0.80;;;24.10;99.90;;;;;;5015609;28;20256;-61
2023/09/01 12:33:52;;;;;;;0.70;0.70;;;24.10;99.90;;;;;;5032765;28;20224;-60
2023/09/01 12:36:17;;;;;;;0.60;0.60;;;24.20;99.90;;;;;;5032658;28;20671;-62
2023/09/01 12:38:43;;;;;;;1.83;0.77;;;24.20;99.90;;;;;;5032486;28;20563;-62
2023/09/01 12:41:09;;;;;;;1.00;0.90;;;24.30;99.90;;;;;;5015021;28;20175;-62
2023/09/01 12:43:34;;;;;;;0.60;0.50;;;24.40;99.90;;;;;;5031920;28;20171;-64
2023/09/01 12:46:00;;;;;;;0.70;0.70;;;24.40;99.90;;;;;;5032472;28;20189;-61
2023/09/01 12:48:25;;;;;;;0.77;0.77;;;24.40;99.90;;;;;;5032987;28;20624;-62
2023/09/01 12:50:51;;;;;;;0.80;0.80;;;24.40;99.90;;;;;;5031396;28;20637;-60
2023/09/01 12:53:17;;;;;;;1.57;0.63;;;24.30;99.90;;;;;;5032175;28;20222;-63
2023/09/01 12:55:45;;;;;;;1.17;1.17;;;24.40;99.90;;;;;;5030831;28;20194;-62
2023/09/01 12:58:10;;;;;;;0.70;0.70;;;24.40;99.90;;;;;;5032731;28;20980;-60
2023/09/01 13:00:36;;;;;;;0.67;0.67;;;24.50;99.90;;;;;;5030929;28;20408;-63
2023/09/01 13:03:02;;;;;;;1.10;1.10;;;24.60;99.90;;;;;;5030695;28;20202;-62
2023/09/01 13:05:29;;;;;;;1.10;0.70;;;24.60;99.90;;;;;;5030159;28;20439;-63
2023/09/01 13:07:55;;;;;;;1.30;1.20;;;24.60;99.90;;;;;;5027651;28;20208;-63
2023/09/01 13:10:21;;;;;;;0.50;0.50;;;24.70;99.90;;;;;;5033927;28;20921;-64
2023/09/01 13:12:47;;;;;;;1.10;0.67;;;24.80;99.90;;;;;;5033806;28;20584;-63
2023/09/01 13:15:14;;;;;;;0.70;0.70;;;25.00;99.90;;;;;;5033461;28;20229;-62
2023/09/01 13:17:44;;;;;;;0.83;0.83;;;25.10;99.90;;;;;;5034403;28;20404;-66
2023/09/01 13:20:11;;;;;;;0.70;0.57;;;25.30;99.90;;;;;;5034155;28;20387;-62
2023/09/01 13:22:38;;;;;;;0.60;0.60;;;25.40;99.90;;;;;;5038723;28;20449;-62
2023/09/01 13:25:04;;;;;;;1.00;0.83;;;25.60;99.90;;;;;;5037081;28;20418;-62
2023/09/01 13:27:32;;;;;;;0.90;0.70;;;25.70;99.90;;;;;;5039056;28;20433;-63
2023/09/01 13:29:57;;;;;;;1.00;0.60;;;25.70;99.40;;;;;;5034726;28;20410;-62
2023/09/01 13:32:23;;;;;;;0.70;0.63;;;25.60;99.20;;;;;;5035805;28;20474;-62
2023/09/01 13:34:49;;;;;;;0.80;0.80;;;25.50;99.70;;;;;;5034866;28;20669;-62
2023/09/01 13:37:14;;;;;;;0.73;0.60;;;25.40;99.90;;;;;;5018397;28;20202;-62
2023/09/01 13:39:41;;;;;;;1.23;0.67;;;25.30;99.90;;;;;;5035856;28;20402;-64
2023/09/01 13:42:07;;;;;;;1.00;0.57;;;25.20;99.90;;;;;;5017697;28;20790;-62
2023/09/01 13:44:33;;;;;;;2.87;0.93;;;25.20;99.90;;;;;;5035799;28;20408;-62
2023/09/01 13:46:59;;;;;;;2.40;2.20;;;25.20;99.90;;;;;;5035731;28;20854;-62
2023/09/01 13:49:26;;;;;;;2.03;1.57;;;25.20;99.90;;;;;;5036157;28;20815;-63
2023/09/01 13:51:51;;;;;;;1.80;0.70;;;25.30;99.90;;;;;;5037670;28;20413;-62
2023/09/01 13:54:17;;;;;;;0.83;0.60;;;25.60;99.90;;;;;;5035469;28;20827;-62
2023/09/01 13:56:43;;;;;;;1.53;0.83;;;25.90;99.90;;;;;;5036354;28;20207;-63
2023/09/01 13:59:10;;;;;;;1.00;0.60;;;26.10;99.10;;;;;;5038149;28;20171;-63
2023/09/01 14:01:37;;;;;;;0.70;0.70;;;26.10;99.50;;;;;;5036281;28;20201;-61
2023/09/01 14:04:04;;;;;;;1.00;0.53;;;26.20;99.40;;;;;;5037097;28;20430;-62
2023/09/01 14:06:29;;;;;;;0.60;0.60;;;26.20;99.00;;;;;;5037072;28;20979;-64
2023/09/01 14:08:55;;;;;;;1.27;1.10;;;26.20;97.90;;;;;;5037384;28;20406;-63
2023/09/01 14:11:22;;;;;;;0.50;0.50;;;26.20;98.10;;;;;;5036851;28;20171;-61
2023/09/01 14:13:48;;;;;;;0.67;0.67;;;26.10;98.60;;;;;;5034984;28;20202;-63
2023/09/01 14:16:13;;;;;;;0.80;0.80;;;26.10;99.20;;;;;;5019410;28;20983;-62
2023/09/01 14:18:41;;;;;;;0.70;0.70;;;26.20;99.30;;;;;;5035144;28;20675;-62
2023/09/01 14:21:07;;;;;;;0.73;0.73;;;26.10;98.30;;;;;;5035377;28;20190;-62
2023/09/01 14:23:33;;;;;;;0.73;0.73;;;25.90;98.00;;;;;;5035195;28;20837;-62
2023/09/01 14:25:58;;;;;;;0.83;0.83;;;25.70;98.10;;;;;;5034587;28;20201;-62
2023/09/01 14:28:24;;;;;;;1.23;0.73;;;25.60;98.40;;;;;;5035078;28;20170;-62
2023/09/01 14:30:49;;;;;;;0.63;0.60;;;25.70;99.20;;;;;;5035042;28;20162;-62
2023/09/01 14:33:15;;;;;;;0.80;0.80;;;25.80;98.60;;;;;;5034895;28;20182;-62
2023/09/01 14:35:41;;;;;;;1.30;0.93;;;25.90;99.00;;;;;;5016680;28;20241;-63
2023/09/01 14:38:07;;;;;;;0.70;0.70;;;26.00;98.60;;;;;;5017299;28;20244;-63
2023/09/01 14:40:37;;;;;;;0.97;0.90;;;26.10;98.60;;;;;;5035558;28;20269;-63
2023/09/01 14:43:03;;;;;;;0.80;0.80;;;26.10;99.10;;;;;;5034428;28;20439;-62
2023/09/01 14:45:28;;;;;;;0.67;0.67;;;26.00;98.90;;;;;;5018160;28;20430;-62
2023/09/01 14:47:54;;;;;;;1.53;0.70;;;26.00;99.00;;;;;;5035205;28;20621;-62
2023/09/01 14:50:24;;;;;;;1.10;1.00;;;25.80;99.10;;;;;;5035162;28;20178;-62
2023/09/01 14:52:50;;;;;;;0.70;0.70;;;25.60;99.50;;;;;;5035005;28;20529;-63
2023/09/01 14:55:18;;;;;;;0.83;0.70;;;25.40;99.80;;;;;;5016657;28;20553;-62
2023/09/01 14:57:45;;;;;;;0.50;0.50;;;25.40;99.90;;;;;;5034847;28;20404;-63
2023/09/01 15:00:14;;;;;;;0.50;0.47;;;25.30;99.90;;;;;;5034452;28;20511;-63
2023/09/01 15:02:40;;;;;;;0.60;0.60;;;25.30;99.90;;;;;;5017269;28;20448;-63
2023/09/01 15:05:06;;;;;;;0.50;0.50;;;25.30;99.90;;;;;;5016119;28;20426;-63
2023/09/01 15:07:32;;;;;;;1.03;0.80;;;25.20;99.90;;;;;;5033896;28;20190;-63
2023/09/01 15:09:58;;;;;;;0.60;0.60;;;25.10;99.90;;;;;;5035816;28;20405;-63
2023/09/01 15:12:26;;;;;;;0.40;0.40;;;24.90;99.90;;;;;;5035803;28;20183;-63
2023/09/01 15:14:52;;;;;;;0.70;0.63;;;24.60;99.90;;;;;;5034189;28;20194;-62
2023/09/01 15:17:17;;;;;;;0.50;0.50;;;24.50;99.90;;;;;;5034879;28;20797;-63
2023/09/01 15:19:43;;;;;;;1.10;0.60;;;24.40;99.90;;;;;;5018474;28;20383;-62
2023/09/01 15:22:10;;;;;;;0.60;0.60;;;24.30;99.90;;;;;;5019593;28;20232;-62
2023/09/01 15:24:36;;;;;;;0.60;0.60;;;24.20;99.90;;;;;;5017436;28;20770;-62
2023/09/01 15:27:04;;;;;;;0.97;0.80;;;24.20;99.90;;;;;;5038319;28;20439;-61
2023/09/01 15:29:32;;;;;;;0.67;0.67;;;24.20;99.90;;;;;;5034750;28;20395;-61
2023/09/01 15:32:02;;;;;;;1.50;1.40;;;24.10;99.90;;;;;;5034937;28;20478;-64
2023/09/01 15:34:28;;;;;;;1.50;0.97;;;24.10;99.90;;;;;;5033873;28;20395;-63
2023/09/01 15:36:53;;;;;;;0.60;0.60;;;24.00;99.90;;;;;;5016535;28;20393;-63
2023/09/01 15:39:19;;;;;;;1.07;1.00;;;24.00;99.90;;;;;;5034357;28;20749;-61
2023/09/01 15:41:45;;;;;;;1.87;0.97;;;24.00;99.90;;;;;;5034224;28;20307;-61
2023/09/01 15:44:11;;;;;;;0.73;0.67;;;23.90;99.90;;;;;;5034183;28;20394;-60
2023/09/01 15:46:39;;;;;;;0.60;0.60;;;23.80;99.90;;;;;;5033809;28;20428;-62
2023/09/01 15:49:05;;;;;;;1.00;1.00;;;23.80;99.90;;;;;;5033403;28;20484;-61
2023/09/01 15:51:31;;;;;;;0.70;0.70;;;23.80;99.90;;;;;;5029285;28;20810;-62
2023/09/01 15:53:59;;;;;;;0.60;0.60;;;23.70;99.90;;;;;;5032938;28;20281;-61
2023/09/01 15:56:25;;;;;;;1.37;1.33;;;23.60;99.90;;;;;;5033276;28;20195;-61
2023/09/01 15:58:50;;;;;;;0.60;0.50;;;23.60;99.90;;;;;;5033566;28;20403;-60
2023/09/01 16:01:16;;;;;;;0.83;0.83;;;23.50;99.90;;;;;;5032818;28;20419;-61
2023/09/01 16:03:41;;;;;;;0.53;0.53;;;23.50;99.90;;;;;;5033019;28;20659;-62
2023/09/01 16:06:07;;;;;;;0.87;0.87;;;23.40;99.90;;;;;;5033419;28;20730;-61
2023/09/01 16:08:33;;;;;;;0.83;0.83;;;23.40;99.90;;;;;;5016326;28;20174;-62
2023/09/01 16:11:03;;;;;;;0.67;0.67;;;23.40;99.90;;;;;;5033282;28;20170;-62
2023/09/01 16:13:28;;;;;;;0.87;0.80;;;23.30;99.90;;;;;;5033302;28;20405;-68
2023/09/01 16:15:54;;;;;;;0.40;0.40;;;23.40;99.90;;;;;;5032945;28;20416;-62
2023/09/01 16:18:20;;;;;;;0.63;0.63;;;23.30;99.90;;;;;;5033199;28;20170;-60
2023/09/01 16:20:45;;;;;;;0.80;0.80;;;23.40;99.90;;;;;;5033326;28;20536;-62
2023/09/01 16:23:11;;;;;;;1.20;0.77;;;23.40;99.90;;;;;;5033801;28;20220;-63
2023/09/01 16:25:37;;;;;;;1.33;0.77;;;23.50;99.90;;;;;;5033640;28;20439;-64
2023/09/01 16:28:04;;;;;;;1.47;1.00;;;23.50;99.90;;;;;;5035084;28;20170;-62
2023/09/01 16:30:32;;;;;;;0.80;0.80;;;23.40;99.90;;;;;;5034923;28;20483;-63
2023/09/01 16:32:59;;;;;;;1.33;1.33;;;23.40;99.90;;;;;;5036595;28;20380;-62
2023/09/01 16:35:24;;;;;;;0.80;0.80;;;23.50;99.90;;;;;;5034698;28;20749;-61
2023/09/01 16:37:50;;;;;;;0.67;0.67;;;23.50;99.90;;;;;;5016231;28;20438;-62
2023/09/01 16:40:17;;;;;;;1.00;1.00;;;23.50;99.90;;;;;;5032638;28;20400;-62
2023/09/01 16:42:43;;;;;;;0.80;0.80;;;23.40;99.90;;;;;;5036870;28;20196;-62
2023/09/01 16:45:10;;;;;;;2.00;0.90;;;23.50;99.90;;;;;;5038421;28;20432;-62
2023/09/01 16:47:36;;;;;;;0.90;0.90;;;23.40;99.90;;;;;;5037076;28;20404;-65
2023/09/01 16:50:03;;;;;;;0.57;0.53;;;23.40;99.90;;;;;;5036895;28;20392;-61
2023/09/01 16:52:29;;;;;;;1.17;1.10;;;23.40;99.90;;;;;;5037261;28;20431;-62
2023/09/01 16:54:55;;;;;;;1.43;0.80;;;23.40;99.90;;;;;;5036701;28;20399;-61